Time;durP1;ratioP1;P1;durP2;ratioP2;P2;SDS_P1;SDS_P2;PMS_P1;PMS_P2;Temp;Humidity;BMP_temperature;BMP_pressure;BME280_temperature;BME280_humidity;BME280_pressure;Samples;Min_cycle;Max_cycle;Signal;HPM_P1;HPM_P2
2021/07/30 00:02:04;;;;;;;10.73;3.47;;;;;;;17.11;67.90;99855.61;125956;1092;25743;-59
2021/07/30 00:04:36;;;;;;;10.20;3.75;;;;;;;17.09;67.79;99856.13;125943;1093;22828;-59
2021/07/30 00:07:08;;;;;;;16.55;4.25;;;;;;;17.08;68.14;99848.97;125877;1092;24118;-60
2021/07/30 00:09:40;;;;;;;10.60;4.00;;;;;;;17.10;68.49;99848.43;125957;1093;22816;-59
2021/07/30 00:12:11;;;;;;;12.15;3.90;;;;;;;17.10;68.24;99860.48;125839;1093;22745;-59
2021/07/30 00:14:43;;;;;;;15.05;3.80;;;;;;;17.09;68.45;99855.38;125889;1093;25854;-59
2021/07/30 00:17:15;;;;;;;12.25;3.80;;;;;;;17.09;68.17;99861.02;125870;1093;22785;-59
2021/07/30 00:19:48;;;;;;;14.65;4.50;;;;;;;17.09;68.49;99861.02;125906;1091;22784;-61
2021/07/30 00:22:19;;;;;;;14.00;4.10;;;;;;;17.08;68.73;99862.30;125839;1093;22751;-58
2021/07/30 00:24:51;;;;;;;12.95;3.80;;;;;;;17.05;68.61;99861.30;126209;1092;22835;-60
2021/07/30 00:27:23;;;;;;;12.50;3.90;;;;;;;17.05;68.89;99858.48;125862;1093;22876;-59
2021/07/30 00:29:55;;;;;;;9.70;3.25;;;;;;;17.05;68.50;99861.30;125946;1092;22855;-59
2021/07/30 00:32:27;;;;;;;14.75;4.40;;;;;;;17.07;68.51;99867.17;126034;1091;22831;-60
2021/07/30 00:35:00;;;;;;;9.80;3.40;;;;;;;17.05;69.04;99858.48;125929;1093;22787;-60
2021/07/30 00:37:32;;;;;;;12.60;3.85;;;;;;;17.04;68.70;99856.20;126058;1093;26296;-60
2021/07/30 00:40:03;;;;;;;10.80;4.00;;;;;;;16.99;69.13;99863.44;125906;1092;22931;-59
2021/07/30 00:42:36;;;;;;;13.30;3.90;;;;;;;16.94;68.89;99864.29;126039;1092;22821;-58
2021/07/30 00:45:08;;;;;;;13.30;2.95;;;;;;;16.90;69.22;99861.75;125903;1091;25903;-59
2021/07/30 00:47:42;;;;;;;14.85;3.60;;;;;;;16.87;69.27;99856.42;125985;1093;25897;-59
2021/07/30 00:50:20;;;;;;;16.25;3.85;;;;;;;16.82;68.94;99860.83;125922;1093;22786;-60
2021/07/30 00:52:58;;;;;;;10.38;2.90;;;;;;;16.78;69.02;99870.91;125884;1093;22825;-60
2021/07/30 00:55:48;;;;;;;11.80;3.63;;;;;;;16.74;69.22;99868.36;125968;1093;24605;-61
2021/07/30 00:58:22;;;;;;;10.97;3.80;;;;;;;16.72;69.29;99876.59;125907;1093;22853;-59
2021/07/30 01:00:58;;;;;;;11.55;3.50;;;;;;;16.69;69.23;99871.25;125913;1093;22786;-60
2021/07/30 01:03:39;;;;;;;13.97;3.87;;;;;;;16.67;69.57;99877.44;126119;1093;22941;-59
2021/07/30 01:06:16;;;;;;;9.75;2.80;;;;;;;16.66;68.88;99869.48;125842;1093;22832;-60
2021/07/30 01:08:52;;;;;;;10.80;3.10;;;;;;;16.69;69.49;99868.44;125970;1093;22859;-59
2021/07/30 01:11:29;;;;;;;13.58;3.18;;;;;;;16.68;69.30;99867.67;125989;1093;24918;-60
2021/07/30 01:14:05;;;;;;;14.65;3.30;;;;;;;16.68;69.49;99866.90;126011;1091;22793;-58
2021/07/30 01:16:55;;;;;;;11.95;3.90;;;;;;;16.67;69.60;99866.16;126154;1092;25900;-60
2021/07/30 01:19:30;;;;;;;12.05;3.55;;;;;;;16.64;69.57;99869.25;125976;1093;24603;-59
2021/07/30 01:22:18;;;;;;;13.20;3.50;;;;;;;16.63;69.47;99870.56;126032;1093;22807;-59
2021/07/30 01:24:58;;;;;;;13.73;3.45;;;;;;;16.59;69.40;99865.23;125937;1092;27182;-59
2021/07/30 01:27:40;;;;;;;13.33;3.35;;;;;;;16.60;69.58;99868.79;126171;1092;25736;-59
2021/07/30 01:30:20;;;;;;;14.25;3.25;;;;;;;16.57;69.79;99865.00;126043;1092;22934;-60
2021/07/30 01:32:54;;;;;;;10.35;3.20;;;;;;;16.56;70.10;99871.14;125913;1093;22860;-59
2021/07/30 01:35:26;;;;;;;14.50;3.70;;;;;;;16.53;70.10;99872.95;125998;1092;25768;-60
2021/07/30 01:37:58;;;;;;;13.70;3.85;;;;;;;16.51;70.20;99869.16;125928;1093;22806;-60
2021/07/30 01:40:31;;;;;;;14.50;3.45;;;;;;;16.48;70.06;99876.59;125887;1093;22848;-60
2021/07/30 01:43:03;;;;;;;11.85;3.75;;;;;;;16.47;70.16;99868.67;125992;1091;23504;-60
2021/07/30 01:45:34;;;;;;;13.25;3.75;;;;;;;16.48;69.75;99873.00;125888;1092;22871;-60
2021/07/30 01:48:08;;;;;;;12.05;3.45;;;;;;;16.47;69.97;99874.30;125916;1092;23241;-60
2021/07/30 01:50:39;;;;;;;11.70;3.50;;;;;;;16.46;69.92;99876.35;125993;1093;22817;-60
2021/07/30 01:53:13;;;;;;;12.55;4.15;;;;;;;16.42;70.35;99864.61;125999;1092;26255;-60
2021/07/30 01:55:45;;;;;;;12.80;3.97;;;;;;;16.39;70.32;99867.73;125985;1092;22807;-59
2021/07/30 01:58:16;;;;;;;12.85;3.50;;;;;;;16.37;70.48;99873.88;125948;1093;22782;-58
2021/07/30 02:00:52;;;;;;;15.75;3.90;;;;;;;16.35;69.86;99872.87;126163;1093;26747;-59
2021/07/30 02:03:23;;;;;;;10.93;3.90;;;;;;;16.32;70.18;99879.58;126372;1093;22804;-60
2021/07/30 02:05:55;;;;;;;11.60;4.10;;;;;;;16.28;70.33;99876.28;126011;1092;22938;-59
2021/07/30 02:08:29;;;;;;;19.30;3.65;;;;;;;16.30;69.80;99874.48;125869;1093;23047;-60
2021/07/30 02:11:01;;;;;;;12.60;3.55;;;;;;;16.30;70.37;99871.66;125835;1093;22784;-60
2021/07/30 02:16:22;;;;;;;10.80;3.10;;;;;;;16.21;70.09;99871.99;125972;1092;22810;-59
2021/07/30 02:18:53;;;;;;;13.55;3.40;;;;;;;16.17;70.44;99877.92;125986;1092;22785;-58
2021/07/30 02:21:25;;;;;;;10.00;3.30;;;;;;;16.13;70.09;99874.63;126023;1092;25775;-58
2021/07/30 02:24:01;;;;;;;11.40;3.40;;;;;;;16.09;70.35;99874.16;126008;1093;24393;-60
2021/07/30 02:26:32;;;;;;;9.95;3.60;;;;;;;16.04;70.46;99872.14;125994;1092;22807;-59
2021/07/30 02:29:04;;;;;;;14.73;3.70;;;;;;;16.03;69.95;99875.50;126104;1093;22945;-60
2021/07/30 02:31:36;;;;;;;20.07;3.50;;;;;;;16.01;70.40;99873.22;126158;1093;22834;-60
2021/07/30 02:34:09;;;;;;;15.70;3.60;;;;;;;15.99;69.86;99869.39;126126;1093;23525;-61
2021/07/30 02:36:40;;;;;;;18.95;3.00;;;;;;;15.98;70.18;99876.30;126022;1093;22813;-61
2021/07/30 02:39:11;;;;;;;14.40;3.80;;;;;;;15.96;70.24;99878.88;125946;1093;22804;-59
2021/07/30 02:41:43;;;;;;;18.30;4.20;;;;;;;15.94;70.39;99881.45;126036;1093;22807;-58
2021/07/30 02:44:15;;;;;;;12.95;3.15;;;;;;;15.90;70.06;99875.34;126008;1093;26264;-59
2021/07/30 02:46:46;;;;;;;11.55;3.25;;;;;;;15.88;70.12;99880.73;126037;1092;23099;-60
2021/07/30 02:49:18;;;;;;;13.40;3.75;;;;;;;15.86;70.26;99880.50;126177;1093;22852;-59
2021/07/30 02:51:49;;;;;;;13.00;3.57;;;;;;;15.85;70.42;99881.80;126059;1093;22803;-58
2021/07/30 02:54:21;;;;;;;15.73;3.53;;;;;;;15.82;70.17;99882.84;126044;1092;22756;-59
2021/07/30 02:56:53;;;;;;;12.37;3.27;;;;;;;15.80;70.43;99879.78;126083;1092;22773;-59
2021/07/30 02:59:24;;;;;;;15.70;3.55;;;;;;;15.78;70.48;99888.76;125989;1093;22723;-59
2021/07/30 03:01:59;;;;;;;12.50;3.60;;;;;;;15.75;70.44;99884.16;125973;1093;24125;-59
2021/07/30 03:04:30;;;;;;;13.05;3.65;;;;;;;15.72;70.48;99890.08;126059;1093;27386;-59
2021/07/30 03:07:01;;;;;;;11.90;3.20;;;;;;;15.69;70.57;99879.86;126082;1092;22779;-60
2021/07/30 03:09:33;;;;;;;9.80;3.00;;;;;;;15.67;70.44;99886.02;125968;1093;22720;-59
2021/07/30 03:12:05;;;;;;;14.77;3.23;;;;;;;15.63;70.55;99888.34;125934;1093;22835;-60
2021/07/30 03:14:38;;;;;;;9.25;3.30;;;;;;;15.62;70.16;99892.44;125991;1093;23209;-60
2021/07/30 03:17:10;;;;;;;12.35;3.95;;;;;;;15.60;70.59;99886.56;126044;1093;26308;-59
2021/07/30 03:19:42;;;;;;;12.00;2.90;;;;;;;15.59;70.49;99881.47;126152;1092;25743;-59
2021/07/30 03:22:14;;;;;;;9.60;2.95;;;;;;;15.58;70.69;99889.14;126040;1092;22977;-60
2021/07/30 03:24:47;;;;;;;16.53;2.93;;;;;;;15.55;70.51;99884.57;126142;1092;22878;-60
2021/07/30 03:27:20;;;;;;;14.40;3.10;;;;;;;15.54;70.61;99883.03;126011;1092;22807;-59
2021/07/30 03:29:54;;;;;;;12.13;4.00;;;;;;;15.55;70.57;99878.95;126173;1093;22766;-58
2021/07/30 03:32:26;;;;;;;9.60;2.90;;;;;;;15.55;70.71;99890.20;126142;1093;22761;-60
2021/07/30 03:34:57;;;;;;;12.83;2.97;;;;;;;15.54;70.63;99887.91;126110;1093;22802;-60
2021/07/30 03:37:28;;;;;;;10.90;2.85;;;;;;;15.55;70.67;99883.80;125999;1093;22776;-59
2021/07/30 03:40:00;;;;;;;11.23;3.30;;;;;;;15.55;70.92;99887.39;126028;1093;22866;-60
2021/07/30 03:42:33;;;;;;;10.40;3.15;;;;;;;15.55;70.70;99893.02;126001;1092;22829;-59
2021/07/30 03:45:05;;;;;;;13.20;3.30;;;;;;;15.56;71.02;99890.97;126033;1093;24429;-60
2021/07/30 03:47:36;;;;;;;9.55;2.85;;;;;;;15.57;70.90;99884.81;126066;1091;24461;-60
2021/07/30 03:50:09;;;;;;;10.75;3.75;;;;;;;15.57;70.93;99893.25;126009;1092;22863;-59
2021/07/30 03:52:41;;;;;;;13.40;3.40;;;;;;;15.56;71.24;99888.16;126101;1093;22967;-60
2021/07/30 03:55:14;;;;;;;13.00;3.50;;;;;;;15.58;71.38;99891.21;126043;1092;24432;-59
2021/07/30 03:57:49;;;;;;;13.45;3.55;;;;;;;15.60;71.66;99888.64;125941;1093;22788;-60
2021/07/30 04:00:21;;;;;;;9.75;2.65;;;;;;;15.60;71.29;99885.83;126098;1091;22841;-60
2021/07/30 04:02:53;;;;;;;10.85;2.95;;;;;;;15.63;71.91;99896.02;126138;1093;22776;-61
2021/07/30 04:05:24;;;;;;;14.20;3.17;;;;;;;15.64;71.66;99898.33;125945;1093;22804;-59
2021/07/30 04:07:57;;;;;;;13.30;3.15;;;;;;;15.66;71.70;99900.62;125977;1093;22807;-59
2021/07/30 04:10:29;;;;;;;11.90;3.20;;;;;;;15.68;72.04;99896.00;125992;1092;24426;-59
2021/07/30 04:13:01;;;;;;;10.45;2.80;;;;;;;15.70;71.85;99898.28;126045;1093;22964;-59
2021/07/30 04:15:33;;;;;;;11.20;3.00;;;;;;;15.73;72.04;99902.85;125953;1093;22777;-60
2021/07/30 04:18:05;;;;;;;9.97;3.40;;;;;;;15.76;72.25;99896.96;126007;1092;24480;-59
2021/07/30 04:20:38;;;;;;;12.90;3.45;;;;;;;15.80;72.53;99899.48;125955;1093;22810;-59
2021/07/30 04:23:10;;;;;;;12.85;2.75;;;;;;;15.82;72.73;99896.91;125906;1093;22794;-55
2021/07/30 04:25:44;;;;;;;9.35;3.05;;;;;;;15.86;72.64;99897.39;125866;1093;22834;-59
2021/07/30 04:28:16;;;;;;;12.30;3.53;;;;;;;15.91;72.23;99896.59;125727;1093;24649;-59
2021/07/30 04:30:47;;;;;;;13.30;4.00;;;;;;;15.95;72.66;99895.00;125770;1093;22834;-58
2021/07/30 04:33:19;;;;;;;10.90;3.40;;;;;;;16.01;72.82;99895.73;125931;1093;28483;-61
2021/07/30 04:35:51;;;;;;;10.35;3.25;;;;;;;16.06;72.86;99896.95;125797;1091;22806;-56
2021/07/30 04:38:23;;;;;;;17.30;3.65;;;;;;;16.12;72.58;99903.30;125883;1093;22786;-57
2021/07/30 04:40:55;;;;;;;11.63;3.03;;;;;;;16.18;72.64;99899.15;126306;1093;22592;-59
2021/07/30 04:43:27;;;;;;;15.80;4.10;;;;;;;16.27;72.51;99903.69;125982;1093;26214;-58
2021/07/30 04:45:58;;;;;;;13.15;3.75;;;;;;;16.32;72.81;99904.92;125736;1093;22803;-58
2021/07/30 04:48:30;;;;;;;9.20;2.80;;;;;;;16.39;72.96;99905.09;125746;1092;22875;-59
2021/07/30 04:51:04;;;;;;;9.70;2.70;;;;;;;16.47;72.70;99905.30;129842;1093;22489;-60
2021/07/30 04:53:49;;;;;;;12.17;3.87;;;;;;;16.53;72.93;99901.13;127703;1093;24433;-59
2021/07/30 04:56:21;;;;;;;9.85;3.60;;;;;;;16.62;72.50;99903.61;126103;1092;27173;-59
2021/07/30 04:58:54;;;;;;;13.90;3.50;;;;;;;16.69;72.85;99900.22;125678;1093;22767;-59
2021/07/30 05:01:25;;;;;;;10.35;2.85;;;;;;;16.76;72.67;99901.68;125999;1093;22803;-59
2021/07/30 05:03:57;;;;;;;10.35;3.35;;;;;;;16.82;72.72;99899.56;125562;1093;27720;-59
2021/07/30 05:06:28;;;;;;;9.00;2.40;;;;;;;16.90;72.46;99897.67;125918;1093;22770;-59
2021/07/30 05:09:02;;;;;;;10.50;3.00;;;;;;;16.96;72.34;99898.36;125906;1093;22810;-58
2021/07/30 05:11:35;;;;;;;11.50;3.10;;;;;;;17.02;72.48;99899.05;125747;1093;23474;-58
2021/07/30 05:14:07;;;;;;;10.50;3.05;;;;;;;17.09;72.62;99901.25;125659;1093;22791;-58
2021/07/30 05:16:38;;;;;;;12.23;3.17;;;;;;;17.17;72.27;99901.42;125673;1093;22781;-58
2021/07/30 05:19:10;;;;;;;11.70;3.10;;;;;;;17.22;72.48;99895.70;125682;1093;22773;-58
2021/07/30 05:21:44;;;;;;;12.97;3.63;;;;;;;17.30;72.29;99898.70;125700;1093;25454;-59
2021/07/30 05:24:15;;;;;;;13.10;3.45;;;;;;;17.36;71.87;99899.38;125680;1093;26260;-59
2021/07/30 05:26:51;;;;;;;10.70;3.10;;;;;;;17.41;71.53;99906.98;125679;1093;22777;-59
2021/07/30 05:29:23;;;;;;;11.00;2.90;;;;;;;17.46;71.50;99900.52;125732;1093;26232;-60
2021/07/30 05:31:54;;;;;;;12.00;2.57;;;;;;;17.50;71.17;99901.77;125691;1093;22800;-59
2021/07/30 05:34:33;;;;;;;10.35;2.70;;;;;;;17.52;71.10;99901.22;125729;1092;30540;-59
2021/07/30 05:37:07;;;;;;;12.38;2.20;;;;;;;17.56;71.08;99904.50;125728;1093;24229;-60
2021/07/30 05:39:38;;;;;;;11.65;2.40;;;;;;;17.59;71.04;99906.23;125752;1092;22774;-61
2021/07/30 05:42:12;;;;;;;10.75;2.20;;;;;;;17.61;70.33;99903.64;125650;1093;23516;-60
2021/07/30 05:44:44;;;;;;;14.65;2.75;;;;;;;17.62;70.78;99896.70;125735;1093;22942;-60
2021/07/30 05:47:17;;;;;;;12.43;2.60;;;;;;;17.64;70.13;99894.11;125679;1093;22786;-60
2021/07/30 05:49:48;;;;;;;9.90;2.50;;;;;;;17.65;70.34;99892.80;125715;1093;25835;-60
2021/07/30 05:52:20;;;;;;;9.75;2.20;;;;;;;17.67;70.56;99895.88;125988;1093;22944;-60
2021/07/30 05:54:52;;;;;;;7.57;2.10;;;;;;;17.69;70.48;99894.02;125730;1093;27189;-60
2021/07/30 05:57:23;;;;;;;12.90;2.50;;;;;;;17.74;70.09;99893.18;125643;1093;22851;-58
2021/07/30 05:59:54;;;;;;;9.05;2.45;;;;;;;17.82;70.22;99898.19;125708;1092;24434;-60
2021/07/30 06:02:26;;;;;;;8.73;2.43;;;;;;;17.89;70.08;99895.52;125809;1092;22837;-60
2021/07/30 06:04:57;;;;;;;11.65;2.30;;;;;;;17.95;70.06;99899.01;125782;1093;23049;-60
2021/07/30 06:07:29;;;;;;;8.10;2.00;;;;;;;18.01;70.05;99896.85;125660;1093;22791;-60
2021/07/30 06:10:04;;;;;;;11.60;2.35;;;;;;;18.07;69.13;99894.70;125701;1093;22870;-60
2021/07/30 06:12:40;;;;;;;8.35;1.85;;;;;;;18.16;68.88;99902.00;125575;1093;26235;-60
2021/07/30 06:15:13;;;;;;;9.35;1.65;;;;;;;18.29;68.29;99899.21;126077;1093;22770;-59
2021/07/30 06:17:45;;;;;;;12.35;2.00;;;;;;;18.42;68.18;99904.87;126066;1093;22797;-59
2021/07/30 06:20:18;;;;;;;7.05;1.70;;;;;;;18.57;67.17;99899.48;125909;1093;22924;-59
2021/07/30 06:22:49;;;;;;;7.00;1.60;;;;;;;18.68;67.53;99890.80;125880;1093;22858;-59
2021/07/30 06:25:21;;;;;;;9.20;1.85;;;;;;;18.78;67.10;99897.54;125973;1092;23518;-60
2021/07/30 06:27:52;;;;;;;7.23;1.60;;;;;;;18.91;67.25;99896.77;125692;1093;26264;-59
2021/07/30 06:30:26;;;;;;;7.60;1.75;;;;;;;19.02;66.59;99885.20;125685;1093;22777;-60
2021/07/30 06:32:57;;;;;;;10.85;1.70;;;;;;;19.15;66.21;99890.86;125742;1093;24161;-59
2021/07/30 06:35:29;;;;;;;11.27;1.80;;;;;;;19.27;65.68;99886.47;125629;1093;22773;-59
2021/07/30 06:38:03;;;;;;;9.65;1.55;;;;;;;19.38;65.45;99894.76;125704;1092;22807;-59
2021/07/30 06:40:34;;;;;;;7.83;1.90;;;;;;;19.49;64.57;99885.26;125627;1093;22803;-60
2021/07/30 06:43:05;;;;;;;14.93;1.97;;;;;;;19.59;63.99;99883.48;125636;1092;22769;-59
2021/07/30 06:45:37;;;;;;;7.07;1.20;;;;;;;19.66;62.66;99889.20;125655;1093;22985;-60
2021/07/30 06:48:08;;;;;;;10.97;1.57;;;;;;;19.73;62.78;99876.44;125659;1093;27182;-59
2021/07/30 06:50:44;;;;;;;7.63;1.20;;;;;;;19.77;61.75;99886.13;125711;1093;22773;-59
2021/07/30 06:53:15;;;;;;;11.90;1.30;;;;;;;19.81;60.72;99880.11;125866;1093;26713;-59
2021/07/30 06:55:47;;;;;;;5.90;1.30;;;;;;;19.89;61.11;99875.27;125711;1093;27400;-60
2021/07/30 06:58:18;;;;;;;8.93;1.57;;;;;;;19.97;60.46;99867.59;125662;1092;22752;-59
2021/07/30 07:00:50;;;;;;;9.00;1.30;;;;;;;20.08;60.95;99878.66;125648;1093;22794;-59
2021/07/30 07:03:21;;;;;;;13.10;1.67;;;;;;;20.21;60.61;99875.78;125560;1093;22861;-60
2021/07/30 07:05:52;;;;;;;11.43;1.50;;;;;;;20.28;60.65;99880.00;125607;1092;22812;-60
2021/07/30 07:08:23;;;;;;;10.90;2.30;;;;;;;20.37;59.72;99874.58;125776;1093;27198;-60
2021/07/30 07:10:53;;;;;;;8.43;1.40;;;;;;;;;;125654;1093;22811;-60
2021/07/30 07:13:24;;;;;;;5.40;1.25;;;;;;;20.49;58.93;99887.14;125865;1093;22771;-59
2021/07/30 07:15:56;;;;;;;10.90;1.68;;;;;;;20.54;58.58;99883.41;125681;1093;22828;-60
2021/07/30 07:18:27;;;;;;;7.17;1.27;;;;;;;20.63;57.60;99885.72;125913;1093;22807;-59
2021/07/30 07:20:59;;;;;;;8.20;1.20;;;;;;;20.72;57.08;99881.61;125616;1093;22800;-59
2021/07/30 07:23:31;;;;;;;8.65;1.25;;;;;;;20.73;56.99;99877.47;125835;1091;22767;-61
2021/07/30 07:26:03;;;;;;;10.40;1.25;;;;;;;20.76;56.46;99882.78;125909;1093;22797;-61
2021/07/30 07:28:36;;;;;;;7.97;1.40;;;;;;;20.78;56.56;99868.03;125614;1093;25848;-59
2021/07/30 07:31:07;;;;;;;5.73;1.43;;;;;;;20.86;56.65;99875.27;125593;1092;22783;-60
2021/07/30 07:33:38;;;;;;;7.98;1.23;;;;;;;20.99;55.72;99868.71;125634;1092;22767;-61
2021/07/30 07:36:10;;;;;;;8.48;1.18;;;;;;;21.09;55.18;99861.22;125624;1093;22906;-60
2021/07/30 07:38:42;;;;;;;6.30;1.30;;;;;;;21.12;55.07;99862.18;125672;1093;27191;-60
2021/07/30 07:41:14;;;;;;;7.98;1.13;;;;;;;21.19;54.33;99861.46;125668;1093;22767;-61
2021/07/30 07:43:45;;;;;;;4.53;0.93;;;;;;;21.28;54.68;99864.52;125628;1093;22797;-60
2021/07/30 07:46:16;;;;;;;6.57;0.90;;;;;;;21.36;54.42;99853.17;125609;1093;26261;-61
2021/07/30 07:48:48;;;;;;;11.15;1.18;;;;;;;21.45;54.42;99861.16;125636;1092;27194;-61
2021/07/30 07:51:22;;;;;;;6.95;1.08;;;;;;;21.57;53.25;99859.48;125703;1092;27677;-60
2021/07/30 07:53:53;;;;;;;5.93;0.90;;;;;;;21.66;53.06;99861.78;125791;1093;22784;-60
2021/07/30 07:56:28;;;;;;;10.80;1.20;;;;;;;21.73;53.00;99864.63;125612;1093;22890;-61
2021/07/30 07:59:00;;;;;;;7.28;1.08;;;;;;;21.82;52.92;99857.66;125540;1093;22820;-61
2021/07/30 08:01:33;;;;;;;8.08;1.00;;;;;;;21.90;52.42;99857.66;125481;1093;27164;-62
2021/07/30 08:04:05;;;;;;;5.37;0.90;;;;;;;21.94;51.81;99858.81;125600;1093;22774;-61
2021/07/30 08:06:37;;;;;;;3.55;0.78;;;;;;;22.01;51.68;99865.83;125775;1093;24421;-61
2021/07/30 08:09:16;;;;;;;8.80;1.30;;;;;;;22.06;51.39;99857.11;125582;1092;27419;-62
2021/07/30 08:11:50;;;;;;;7.23;1.10;;;;;;;22.17;51.49;99853.89;125667;1093;22797;-59
2021/07/30 08:14:22;;;;;;;5.98;1.20;;;;;;;22.25;51.63;99853.88;125669;1093;24297;-61
2021/07/30 08:16:54;;;;;;;7.13;1.10;;;;;;;22.33;50.93;99849.70;125756;1093;22985;-60
2021/07/30 08:19:25;;;;;;;4.73;0.90;;;;;;;22.38;50.75;99839.47;125830;1093;25645;-58
2021/07/30 08:21:59;;;;;;;4.83;0.90;;;;;;;22.44;50.66;99843.63;125557;1093;22928;-59
2021/07/30 08:24:31;;;;;;;6.70;1.05;;;;;;;22.48;49.84;99844.00;125813;1092;22932;-63
2021/07/30 08:27:07;;;;;;;5.38;1.23;;;;;;;22.50;50.13;99843.42;125644;1093;25852;-59
2021/07/30 08:29:41;;;;;;;9.18;1.00;;;;;;;22.57;49.78;99845.51;125722;1093;25861;-60
2021/07/30 08:32:13;;;;;;;5.10;0.90;;;;;;;22.62;49.03;99840.95;125805;1092;25331;-60
2021/07/30 08:34:45;;;;;;;3.67;0.90;;;;;;;22.61;48.54;99845.91;125764;1093;22771;-60
2021/07/30 08:37:17;;;;;;;6.45;0.90;;;;;;;22.59;48.46;99836.42;125644;1092;22773;-59
2021/07/30 08:39:48;;;;;;;8.28;1.33;;;;;;;22.60;47.97;99837.92;125802;1093;27192;-59
2021/07/30 08:42:20;;;;;;;6.23;1.00;;;;;;;22.68;48.95;99822.34;125682;1093;22779;-60
2021/07/30 08:44:51;;;;;;;8.43;1.30;;;;;;;22.82;48.07;99831.44;125631;1092;27188;-60
2021/07/30 08:47:23;;;;;;;5.70;0.90;;;;;;;22.89;47.13;99825.70;125744;1092;22800;-61
2021/07/30 08:49:55;;;;;;;5.95;1.00;;;;;;;22.95;47.52;99829.09;125731;1093;26229;-61
2021/07/30 08:52:36;;;;;;;3.83;0.90;;;;;;;23.04;47.41;99828.50;125754;1093;22784;-60
2021/07/30 08:55:10;;;;;;;6.83;1.00;;;;;;;23.17;47.01;99827.49;125642;1093;22790;-60
2021/07/30 08:57:43;;;;;;;7.20;1.05;;;;;;;23.17;46.13;99833.92;125799;1092;22825;-59
2021/07/30 09:00:18;;;;;;;5.80;1.03;;;;;;;23.19;46.07;99831.28;125802;1093;22751;-60
2021/07/30 09:02:50;;;;;;;6.75;1.10;;;;;;;23.22;45.95;99832.96;125929;1093;22780;-60
2021/07/30 09:05:29;;;;;;;10.75;1.00;;;;;;;23.25;46.29;99825.36;125685;1092;22767;-60
2021/07/30 09:08:02;;;;;;;9.03;1.00;;;;;;;23.36;46.28;99818.50;125733;1093;27160;-60
2021/07/30 09:10:36;;;;;;;3.93;0.88;;;;;;;23.47;46.06;99809.48;125789;1093;22771;-60
2021/07/30 09:13:19;;;;;;;5.95;1.00;;;;;;;23.56;45.12;99806.02;125703;1093;22848;-60
2021/07/30 09:16:00;;;;;;;3.70;0.87;;;;;;;23.61;44.84;99807.90;125880;1093;28115;-60
2021/07/30 09:18:34;;;;;;;4.60;1.20;;;;;;;23.71;44.79;99794.52;125707;1093;22780;-60
2021/07/30 09:21:28;;;;;;;3.15;0.75;;;;;;;23.82;44.58;99799.73;125747;1093;27182;-60
2021/07/30 09:24:01;;;;;;;5.63;1.00;;;;;;;23.98;43.10;99793.33;126001;1093;22774;-60
2021/07/30 09:26:40;;;;;;;5.60;1.00;;;;;;;24.10;44.08;99785.09;125771;1093;22773;-59
2021/07/30 09:29:14;;;;;;;5.90;0.95;;;;;;;24.17;43.53;99789.23;125782;1093;22786;-59
2021/07/30 09:31:49;;;;;;;4.38;1.00;;;;;;;24.17;42.91;99778.55;125743;1093;22907;-60
2021/07/30 09:34:24;;;;;;;2.95;0.88;;;;;;;24.25;42.90;99787.78;125722;1093;27565;-59
2021/07/30 09:37:00;;;;;;;8.47;1.07;;;;;;;24.34;43.10;99770.02;125735;1093;22789;-61
2021/07/30 09:39:41;;;;;;;7.25;1.30;;;;;;;24.41;43.06;99774.14;125848;1093;22774;-60
2021/07/30 09:42:14;;;;;;;4.00;0.98;;;;;;;24.49;42.93;99774.80;125708;1093;22806;-60
2021/07/30 09:44:54;;;;;;;7.70;1.07;;;;;;;24.51;42.27;99764.33;125834;1093;22770;-60
2021/07/30 09:47:27;;;;;;;5.23;1.00;;;;;;;24.54;41.75;99770.95;126049;1093;22819;-61
2021/07/30 09:50:00;;;;;;;4.28;1.00;;;;;;;24.52;41.47;99768.67;125689;1093;22774;-60
2021/07/30 09:52:33;;;;;;;6.13;1.08;;;;;;;24.51;41.06;99760.70;125799;1093;22800;-61
2021/07/30 09:55:07;;;;;;;6.30;1.03;;;;;;;24.53;41.97;99758.02;125814;1093;22767;-60
2021/07/30 09:57:40;;;;;;;5.75;1.10;;;;;;;24.64;41.68;99757.52;125721;1093;22789;-60
2021/07/30 10:00:15;;;;;;;7.95;0.98;;;;;;;24.69;41.56;99745.07;125706;1093;26614;-60
2021/07/30 10:02:48;;;;;;;7.85;1.25;;;;;;;24.74;41.10;99746.95;125742;1093;23788;-60
2021/07/30 10:05:21;;;;;;;7.23;1.18;;;;;;;24.76;41.61;99736.46;125685;1093;24475;-60
2021/07/30 10:07:54;;;;;;;4.23;0.83;;;;;;;24.78;41.36;99739.48;125724;1093;22770;-61
2021/07/30 10:10:28;;;;;;;7.45;0.98;;;;;;;24.87;42.15;99738.04;125601;1093;22790;-60
2021/07/30 10:13:05;;;;;;;5.75;1.08;;;;;;;24.98;41.85;99737.48;125664;1093;22864;-60
2021/07/30 10:15:37;;;;;;;2.60;0.90;;;;;;;25.04;41.20;99731.53;125643;1093;22797;-60
2021/07/30 10:18:09;;;;;;;7.00;1.57;;;;;;;25.07;40.36;99727.47;125835;1093;22810;-60
2021/07/30 10:20:43;;;;;;;6.80;1.15;;;;;;;25.05;40.54;99730.17;125748;1093;22805;-60
2021/07/30 10:23:18;;;;;;;5.95;1.00;;;;;;;25.03;40.55;99718.59;125748;1093;22763;-60
2021/07/30 10:25:54;;;;;;;4.43;1.10;;;;;;;25.08;40.59;99724.02;125751;1093;22824;-60
2021/07/30 10:28:28;;;;;;;5.18;0.93;;;;;;;25.13;40.15;99725.09;125706;1093;22811;-65
2021/07/30 10:31:01;;;;;;;3.85;1.00;;;;;;;25.16;40.58;99718.22;125827;1093;27230;-60
2021/07/30 10:33:50;;;;;;;4.30;1.03;;;;;;;25.25;40.38;99709.68;125767;1092;25832;-60
2021/07/30 10:36:38;;;;;;;7.43;1.10;;;;;;;25.29;40.77;99704.28;125701;1093;24516;-60
2021/07/30 10:39:15;;;;;;;3.88;1.00;;;;;;;25.38;40.47;99717.11;125790;1093;22800;-60
2021/07/30 10:42:12;;;;;;;5.58;1.05;;;;;;;25.37;39.81;99695.59;125760;1093;22864;-60
2021/07/30 10:45:18;;;;;;;7.77;1.20;;;;;;;25.37;39.63;99699.20;125704;1093;22770;-60
2021/07/30 10:48:34;;;;;;;6.18;1.20;;;;;;;25.45;39.01;99699.13;125684;1092;22812;-59
2021/07/30 10:51:20;;;;;;;7.20;1.13;;;;;;;25.44;39.38;99692.66;125727;1092;27181;-61
2021/07/30 10:53:58;;;;;;;5.43;1.10;;;;;;;25.46;39.33;99686.33;125697;1093;22775;-60
2021/07/30 10:56:50;;;;;;;3.63;0.90;;;;;;;25.44;39.52;99677.60;125958;1093;26226;-60
2021/07/30 10:59:23;;;;;;;6.53;1.30;;;;;;;25.40;39.18;99686.59;125717;1093;22840;-61
2021/07/30 11:02:01;;;;;;;5.58;1.40;;;;;;;25.38;38.77;99682.81;125760;1093;27153;-61
2021/07/30 11:04:33;;;;;;;4.08;1.10;;;;;;;25.42;39.87;99683.92;125807;1093;22770;-61
2021/07/30 11:07:06;;;;;;;6.30;1.15;;;;;;;25.56;40.10;99685.02;125821;1093;22802;-61
2021/07/30 11:09:41;;;;;;;6.28;1.43;;;;;;;25.74;39.35;99679.93;125811;1093;22788;-60
2021/07/30 11:12:22;;;;;;;4.43;1.30;;;;;;;25.79;39.19;99678.14;125772;1093;22804;-61
2021/07/30 11:14:53;;;;;;;5.93;1.20;;;;;;;25.85;39.68;99670.02;125666;1093;22849;-61
2021/07/30 11:17:24;;;;;;;5.38;1.20;;;;;;;25.93;39.40;99679.97;125633;1092;22791;-61
2021/07/30 11:19:56;;;;;;;4.05;1.20;;;;;;;25.94;39.09;99672.91;125665;1091;24454;-61
2021/07/30 11:22:27;;;;;;;4.83;1.10;;;;;;;25.90;39.25;99672.61;125704;1093;26369;-61
2021/07/30 11:24:59;;;;;;;8.95;1.30;;;;;;;25.94;39.53;99663.58;125725;1093;22771;-59
2021/07/30 11:27:30;;;;;;;8.35;1.48;;;;;;;26.04;39.38;99661.47;125642;1093;22763;-61
2021/07/30 11:30:03;;;;;;;6.20;1.20;;;;;;;26.04;39.02;99662.23;125662;1093;22771;-61
2021/07/30 11:32:34;;;;;;;8.23;1.07;;;;;;;25.98;38.38;99656.06;125746;1093;22797;-61
2021/07/30 11:35:09;;;;;;;4.53;1.30;;;;;;;26.00;38.78;99656.20;125742;1093;22771;-61
2021/07/30 11:37:41;;;;;;;5.38;1.08;;;;;;;26.10;39.16;99648.41;125573;1093;26226;-61
2021/07/30 11:40:17;;;;;;;4.20;1.03;;;;;;;26.19;38.61;99655.49;125618;1092;22770;-61
2021/07/30 11:42:48;;;;;;;6.90;1.27;;;;;;;26.14;38.39;99651.57;125898;1093;22801;-61
2021/07/30 11:45:22;;;;;;;7.15;1.10;;;;;;;26.11;38.33;99652.03;125638;1092;23473;-61
2021/07/30 11:47:54;;;;;;;4.30;1.05;;;;;;;26.08;38.14;99651.13;125692;1093;26219;-61
2021/07/30 11:50:27;;;;;;;5.30;1.10;;;;;;;26.13;38.11;99643.59;125567;1093;26260;-61
2021/07/30 11:53:08;;;;;;;9.35;1.43;;;;;;;26.13;37.87;99647.22;125679;1093;25851;-60
2021/07/30 11:55:42;;;;;;;5.10;1.15;;;;;;;26.13;38.25;99643.59;125604;1093;25848;-61